sensor_id;sensor_type;location;lat;lon;timestamp;P1;durP1;ratioP1;P2;durP2;ratioP2
18653;SDS011;9456;47.824;16.228;2023-05-10T00:02:03;4.90;;;4.00;;
18653;SDS011;9456;47.824;16.228;2023-05-10T00:04:34;4.53;;;4.13;;
18653;SDS011;9456;47.824;16.228;2023-05-10T00:07:03;7.47;;;4.83;;
18653;SDS011;9456;47.824;16.228;2023-05-10T00:09:32;4.70;;;4.30;;
18653;SDS011;9456;47.824;16.228;2023-05-10T00:12:01;7.90;;;4.47;;
18653;SDS011;9456;47.824;16.228;2023-05-10T00:14:30;6.40;;;4.10;;
18653;SDS011;9456;47.824;16.228;2023-05-10T00:17:00;5.07;;;4.60;;
18653;SDS011;9456;47.824;16.228;2023-05-10T00:19:29;4.77;;;4.27;;
18653;SDS011;9456;47.824;16.228;2023-05-10T00:21:58;8.53;;;4.30;;
18653;SDS011;9456;47.824;16.228;2023-05-10T00:24:27;5.67;;;4.43;;
18653;SDS011;9456;47.824;16.228;2023-05-10T00:26:56;5.13;;;4.47;;
18653;SDS011;9456;47.824;16.228;2023-05-10T00:29:25;4.63;;;4.10;;
18653;SDS011;9456;47.824;16.228;2023-05-10T00:31:54;5.27;;;4.43;;
18653;SDS011;9456;47.824;16.228;2023-05-10T00:34:23;4.83;;;4.40;;
18653;SDS011;9456;47.824;16.228;2023-05-10T00:36:52;5.77;;;4.70;;
18653;SDS011;9456;47.824;16.228;2023-05-10T00:39:21;5.90;;;4.20;;
18653;SDS011;9456;47.824;16.228;2023-05-10T00:41:50;5.17;;;4.63;;
18653;SDS011;9456;47.824;16.228;2023-05-10T00:44:19;4.97;;;4.53;;
18653;SDS011;9456;47.824;16.228;2023-05-10T00:46:49;5.50;;;4.50;;
18653;SDS011;9456;47.824;16.228;2023-05-10T00:49:18;5.13;;;4.63;;
18653;SDS011;9456;47.824;16.228;2023-05-10T00:51:48;5.23;;;4.73;;
18653;SDS011;9456;47.824;16.228;2023-05-10T00:54:18;6.87;;;4.67;;
18653;SDS011;9456;47.824;16.228;2023-05-10T00:56:46;5.63;;;5.10;;
18653;SDS011;9456;47.824;16.228;2023-05-10T00:59:15;5.43;;;4.77;;
18653;SDS011;9456;47.824;16.228;2023-05-10T01:01:45;8.83;;;4.60;;
18653;SDS011;9456;47.824;16.228;2023-05-10T01:04:14;6.00;;;4.90;;
18653;SDS011;9456;47.824;16.228;2023-05-10T01:06:43;12.67;;;4.63;;
18653;SDS011;9456;47.824;16.228;2023-05-10T01:09:12;5.57;;;4.73;;
18653;SDS011;9456;47.824;16.228;2023-05-10T01:11:40;7.10;;;4.67;;
18653;SDS011;9456;47.824;16.228;2023-05-10T01:14:09;7.53;;;4.97;;
18653;SDS011;9456;47.824;16.228;2023-05-10T01:16:39;6.37;;;5.07;;
18653;SDS011;9456;47.824;16.228;2023-05-10T01:19:09;7.43;;;4.87;;
18653;SDS011;9456;47.824;16.228;2023-05-10T01:21:38;6.30;;;5.03;;
18653;SDS011;9456;47.824;16.228;2023-05-10T01:27:22;5.75;;;4.30;;
18653;SDS011;9456;47.824;16.228;2023-05-10T01:30:22;6.50;;;4.70;;
18653;SDS011;9456;47.824;16.228;2023-05-10T01:33:11;6.00;;;4.60;;
18653;SDS011;9456;47.824;16.228;2023-05-10T01:35:41;6.70;;;4.87;;
18653;SDS011;9456;47.824;16.228;2023-05-10T01:38:13;5.13;;;4.67;;
18653;SDS011;9456;47.824;16.228;2023-05-10T01:40:42;5.70;;;4.33;;
18653;SDS011;9456;47.824;16.228;2023-05-10T01:43:14;4.83;;;4.33;;
18653;SDS011;9456;47.824;16.228;2023-05-10T01:45:46;7.63;;;5.00;;
18653;SDS011;9456;47.824;16.228;2023-05-10T01:48:11;5.63;;;4.50;;
18653;SDS011;9456;47.824;16.228;2023-05-10T01:50:41;6.63;;;4.90;;
18653;SDS011;9456;47.824;16.228;2023-05-10T01:53:09;4.73;;;4.23;;
18653;SDS011;9456;47.824;16.228;2023-05-10T01:55:41;6.43;;;4.43;;
18653;SDS011;9456;47.824;16.228;2023-05-10T01:58:10;5.93;;;4.60;;
18653;SDS011;9456;47.824;16.228;2023-05-10T02:00:37;5.13;;;4.63;;
18653;SDS011;9456;47.824;16.228;2023-05-10T02:03:08;4.53;;;4.07;;
18653;SDS011;9456;47.824;16.228;2023-05-10T02:05:37;5.23;;;4.23;;
18653;SDS011;9456;47.824;16.228;2023-05-10T02:08:06;7.30;;;4.90;;
18653;SDS011;9456;47.824;16.228;2023-05-10T02:10:35;6.37;;;4.37;;
18653;SDS011;9456;47.824;16.228;2023-05-10T02:13:04;4.80;;;4.37;;
18653;SDS011;9456;47.824;16.228;2023-05-10T02:15:33;5.63;;;4.47;;
18653;SDS011;9456;47.824;16.228;2023-05-10T02:18:02;5.03;;;4.53;;
18653;SDS011;9456;47.824;16.228;2023-05-10T02:20:31;6.10;;;4.80;;
18653;SDS011;9456;47.824;16.228;2023-05-10T02:23:00;7.20;;;4.70;;
18653;SDS011;9456;47.824;16.228;2023-05-10T02:25:29;7.33;;;4.13;;
18653;SDS011;9456;47.824;16.228;2023-05-10T02:27:58;4.87;;;4.37;;
18653;SDS011;9456;47.824;16.228;2023-05-10T02:30:27;4.90;;;4.40;;
18653;SDS011;9456;47.824;16.228;2023-05-10T02:32:56;6.07;;;4.77;;
18653;SDS011;9456;47.824;16.228;2023-05-10T02:35:25;4.83;;;4.33;;
18653;SDS011;9456;47.824;16.228;2023-05-10T02:37:54;5.10;;;4.60;;
18653;SDS011;9456;47.824;16.228;2023-05-10T02:40:23;5.20;;;4.33;;
18653;SDS011;9456;47.824;16.228;2023-05-10T02:42:52;4.87;;;4.13;;
18653;SDS011;9456;47.824;16.228;2023-05-10T02:45:21;4.53;;;4.13;;
18653;SDS011;9456;47.824;16.228;2023-05-10T02:47:50;5.27;;;4.50;;
18653;SDS011;9456;47.824;16.228;2023-05-10T02:50:19;4.60;;;4.20;;
18653;SDS011;9456;47.824;16.228;2023-05-10T02:52:49;8.27;;;4.87;;
18653;SDS011;9456;47.824;16.228;2023-05-10T02:55:19;6.37;;;4.80;;
18653;SDS011;9456;47.824;16.228;2023-05-10T02:57:50;4.87;;;4.17;;
18653;SDS011;9456;47.824;16.228;2023-05-10T03:00:18;5.23;;;4.73;;
18653;SDS011;9456;47.824;16.228;2023-05-10T03:02:47;8.37;;;4.60;;
18653;SDS011;9456;47.824;16.228;2023-05-10T03:05:16;7.57;;;4.70;;
18653;SDS011;9456;47.824;16.228;2023-05-10T03:07:46;4.80;;;4.40;;
18653;SDS011;9456;47.824;16.228;2023-05-10T03:10:14;6.33;;;5.13;;
18653;SDS011;9456;47.824;16.228;2023-05-10T03:12:49;6.03;;;4.60;;
18653;SDS011;9456;47.824;16.228;2023-05-10T03:15:22;6.23;;;4.70;;
18653;SDS011;9456;47.824;16.228;2023-05-10T03:17:52;4.67;;;4.27;;
18653;SDS011;9456;47.824;16.228;2023-05-10T03:20:22;5.27;;;4.20;;
18653;SDS011;9456;47.824;16.228;2023-05-10T03:22:51;4.90;;;4.43;;
18653;SDS011;9456;47.824;16.228;2023-05-10T03:25:20;7.57;;;4.67;;
18653;SDS011;9456;47.824;16.228;2023-05-10T03:27:49;5.73;;;5.03;;
18653;SDS011;9456;47.824;16.228;2023-05-10T03:30:18;5.27;;;4.77;;
18653;SDS011;9456;47.824;16.228;2023-05-10T03:32:47;5.30;;;4.30;;
18653;SDS011;9456;47.824;16.228;2023-05-10T03:35:17;6.53;;;4.90;;
18653;SDS011;9456;47.824;16.228;2023-05-10T03:37:46;5.17;;;4.27;;
18653;SDS011;9456;47.824;16.228;2023-05-10T03:40:15;4.60;;;4.20;;
18653;SDS011;9456;47.824;16.228;2023-05-10T03:42:44;7.60;;;5.00;;
18653;SDS011;9456;47.824;16.228;2023-05-10T03:45:13;7.00;;;4.43;;
18653;SDS011;9456;47.824;16.228;2023-05-10T03:47:42;5.70;;;4.97;;
18653;SDS011;9456;47.824;16.228;2023-05-10T03:50:11;6.73;;;4.53;;
18653;SDS011;9456;47.824;16.228;2023-05-10T03:52:40;6.40;;;4.70;;
18653;SDS011;9456;47.824;16.228;2023-05-10T03:55:09;4.33;;;3.93;;
18653;SDS011;9456;47.824;16.228;2023-05-10T03:57:38;6.43;;;4.70;;
18653;SDS011;9456;47.824;16.228;2023-05-10T04:00:08;9.43;;;4.67;;
18653;SDS011;9456;47.824;16.228;2023-05-10T04:02:38;5.40;;;4.63;;
18653;SDS011;9456;47.824;16.228;2023-05-10T04:05:08;6.23;;;4.87;;
18653;SDS011;9456;47.824;16.228;2023-05-10T04:07:39;6.63;;;4.97;;
18653;SDS011;9456;47.824;16.228;2023-05-10T04:10:09;6.97;;;4.70;;
18653;SDS011;9456;47.824;16.228;2023-05-10T04:12:38;4.57;;;4.13;;
18653;SDS011;9456;47.824;16.228;2023-05-10T04:15:08;6.77;;;4.13;;
18653;SDS011;9456;47.824;16.228;2023-05-10T04:17:37;7.47;;;4.20;;
18653;SDS011;9456;47.824;16.228;2023-05-10T04:20:07;5.47;;;4.40;;
18653;SDS011;9456;47.824;16.228;2023-05-10T04:22:37;5.80;;;4.43;;
18653;SDS011;9456;47.824;16.228;2023-05-10T04:25:07;5.97;;;4.97;;
18653;SDS011;9456;47.824;16.228;2023-05-10T04:27:36;6.80;;;4.07;;
18653;SDS011;9456;47.824;16.228;2023-05-10T04:30:07;7.47;;;4.50;;
18653;SDS011;9456;47.824;16.228;2023-05-10T04:32:36;7.37;;;4.50;;
18653;SDS011;9456;47.824;16.228;2023-05-10T04:35:06;5.43;;;4.30;;
18653;SDS011;9456;47.824;16.228;2023-05-10T04:37:36;7.57;;;4.70;;
18653;SDS011;9456;47.824;16.228;2023-05-10T04:40:06;6.30;;;4.13;;
18653;SDS011;9456;47.824;16.228;2023-05-10T04:42:36;9.30;;;4.53;;
18653;SDS011;9456;47.824;16.228;2023-05-10T04:45:07;7.13;;;4.27;;
18653;SDS011;9456;47.824;16.228;2023-05-10T04:47:36;5.37;;;4.00;;
18653;SDS011;9456;47.824;16.228;2023-05-10T04:50:07;4.80;;;4.30;;
18653;SDS011;9456;47.824;16.228;2023-05-10T04:52:36;5.83;;;4.50;;
18653;SDS011;9456;47.824;16.228;2023-05-10T04:55:06;6.47;;;4.50;;
18653;SDS011;9456;47.824;16.228;2023-05-10T04:57:36;9.73;;;4.50;;
18653;SDS011;9456;47.824;16.228;2023-05-10T05:00:06;5.33;;;4.10;;
18653;SDS011;9456;47.824;16.228;2023-05-10T05:02:36;7.10;;;3.93;;
18653;SDS011;9456;47.824;16.228;2023-05-10T05:05:05;7.53;;;4.30;;
18653;SDS011;9456;47.824;16.228;2023-05-10T05:07:35;4.53;;;3.70;;
18653;SDS011;9456;47.824;16.228;2023-05-10T05:10:05;5.07;;;4.23;;
18653;SDS011;9456;47.824;16.228;2023-05-10T05:12:35;9.20;;;4.47;;
18653;SDS011;9456;47.824;16.228;2023-05-10T05:15:05;5.17;;;4.43;;
18653;SDS011;9456;47.824;16.228;2023-05-10T05:17:35;7.63;;;4.83;;
18653;SDS011;9456;47.824;16.228;2023-05-10T05:20:05;5.50;;;4.30;;
18653;SDS011;9456;47.824;16.228;2023-05-10T05:22:36;7.00;;;4.50;;
18653;SDS011;9456;47.824;16.228;2023-05-10T05:25:06;5.00;;;4.50;;
18653;SDS011;9456;47.824;16.228;2023-05-10T05:27:35;6.90;;;4.80;;
18653;SDS011;9456;47.824;16.228;2023-05-10T05:30:06;5.70;;;4.63;;
18653;SDS011;9456;47.824;16.228;2023-05-10T05:32:36;5.00;;;4.43;;
18653;SDS011;9456;47.824;16.228;2023-05-10T05:35:06;5.80;;;4.40;;
18653;SDS011;9456;47.824;16.228;2023-05-10T05:37:36;4.70;;;4.30;;
18653;SDS011;9456;47.824;16.228;2023-05-10T05:40:06;7.87;;;4.40;;
18653;SDS011;9456;47.824;16.228;2023-05-10T05:42:36;6.77;;;5.00;;
18653;SDS011;9456;47.824;16.228;2023-05-10T05:45:05;5.27;;;4.30;;
18653;SDS011;9456;47.824;16.228;2023-05-10T05:47:35;5.20;;;4.50;;
18653;SDS011;9456;47.824;16.228;2023-05-10T05:50:04;5.63;;;4.17;;
18653;SDS011;9456;47.824;16.228;2023-05-10T05:52:34;7.13;;;4.67;;
18653;SDS011;9456;47.824;16.228;2023-05-10T05:55:03;5.93;;;4.50;;
18653;SDS011;9456;47.824;16.228;2023-05-10T05:57:33;6.67;;;4.37;;
18653;SDS011;9456;47.824;16.228;2023-05-10T06:00:02;6.10;;;4.40;;
18653;SDS011;9456;47.824;16.228;2023-05-10T06:02:32;6.47;;;5.00;;
18653;SDS011;9456;47.824;16.228;2023-05-10T06:05:01;7.20;;;4.70;;
18653;SDS011;9456;47.824;16.228;2023-05-10T06:07:30;5.50;;;4.47;;
18653;SDS011;9456;47.824;16.228;2023-05-10T06:09:59;6.80;;;4.53;;
18653;SDS011;9456;47.824;16.228;2023-05-10T06:12:28;7.07;;;4.40;;
18653;SDS011;9456;47.824;16.228;2023-05-10T06:14:57;8.83;;;4.60;;
18653;SDS011;9456;47.824;16.228;2023-05-10T06:17:26;5.20;;;3.83;;
18653;SDS011;9456;47.824;16.228;2023-05-10T06:19:54;5.50;;;3.90;;
18653;SDS011;9456;47.824;16.228;2023-05-10T06:22:24;6.40;;;4.63;;
18653;SDS011;9456;47.824;16.228;2023-05-10T06:24:53;4.73;;;4.17;;
18653;SDS011;9456;47.824;16.228;2023-05-10T06:27:21;5.10;;;4.43;;
18653;SDS011;9456;47.824;16.228;2023-05-10T06:29:50;6.00;;;4.17;;
18653;SDS011;9456;47.824;16.228;2023-05-10T06:32:19;10.03;;;4.73;;
18653;SDS011;9456;47.824;16.228;2023-05-10T06:34:48;6.63;;;4.20;;
18653;SDS011;9456;47.824;16.228;2023-05-10T06:37:17;8.37;;;4.53;;
18653;SDS011;9456;47.824;16.228;2023-05-10T06:39:46;6.43;;;4.97;;
18653;SDS011;9456;47.824;16.228;2023-05-10T06:42:15;6.57;;;4.40;;
18653;SDS011;9456;47.824;16.228;2023-05-10T06:44:44;4.83;;;3.93;;
18653;SDS011;9456;47.824;16.228;2023-05-10T06:47:13;6.57;;;3.57;;
18653;SDS011;9456;47.824;16.228;2023-05-10T06:49:42;5.67;;;3.67;;
18653;SDS011;9456;47.824;16.228;2023-05-10T06:52:11;5.97;;;4.13;;
18653;SDS011;9456;47.824;16.228;2023-05-10T06:54:40;5.90;;;3.20;;
18653;SDS011;9456;47.824;16.228;2023-05-10T06:57:09;7.53;;;4.10;;
18653;SDS011;9456;47.824;16.228;2023-05-10T06:59:38;7.63;;;3.87;;
18653;SDS011;9456;47.824;16.228;2023-05-10T07:02:07;4.97;;;3.30;;
18653;SDS011;9456;47.824;16.228;2023-05-10T07:04:36;5.00;;;3.00;;
18653;SDS011;9456;47.824;16.228;2023-05-10T07:07:05;6.17;;;3.17;;
18653;SDS011;9456;47.824;16.228;2023-05-10T07:09:34;6.63;;;3.10;;
18653;SDS011;9456;47.824;16.228;2023-05-10T07:12:03;11.43;;;3.40;;
18653;SDS011;9456;47.824;16.228;2023-05-10T07:14:32;4.00;;;3.00;;
18653;SDS011;9456;47.824;16.228;2023-05-10T07:17:01;11.87;;;3.20;;
18653;SDS011;9456;47.824;16.228;2023-05-10T07:21:58;8.57;;;3.20;;
18653;SDS011;9456;47.824;16.228;2023-05-10T07:24:27;8.50;;;3.47;;
18653;SDS011;9456;47.824;16.228;2023-05-10T07:26:56;7.83;;;3.40;;
18653;SDS011;9456;47.824;16.228;2023-05-10T07:29:25;4.67;;;3.13;;
18653;SDS011;9456;47.824;16.228;2023-05-10T07:31:54;4.40;;;3.17;;
18653;SDS011;9456;47.824;16.228;2023-05-10T07:34:23;6.50;;;3.20;;
18653;SDS011;9456;47.824;16.228;2023-05-10T07:36:52;7.00;;;3.10;;
18653;SDS011;9456;47.824;16.228;2023-05-10T07:39:20;3.50;;;3.20;;
18653;SDS011;9456;47.824;16.228;2023-05-10T07:41:49;3.50;;;3.20;;
18653;SDS011;9456;47.824;16.228;2023-05-10T07:44:21;5.10;;;3.47;;
18653;SDS011;9456;47.824;16.228;2023-05-10T07:46:50;4.50;;;2.73;;
18653;SDS011;9456;47.824;16.228;2023-05-10T07:49:19;4.33;;;2.77;;
18653;SDS011;9456;47.824;16.228;2023-05-10T07:51:48;3.27;;;2.60;;
18653;SDS011;9456;47.824;16.228;2023-05-10T07:54:17;7.20;;;3.40;;
18653;SDS011;9456;47.824;16.228;2023-05-10T07:56:46;6.97;;;3.50;;
18653;SDS011;9456;47.824;16.228;2023-05-10T07:59:16;8.10;;;3.30;;
18653;SDS011;9456;47.824;16.228;2023-05-10T08:01:44;4.97;;;2.80;;
18653;SDS011;9456;47.824;16.228;2023-05-10T08:04:14;4.07;;;3.17;;
18653;SDS011;9456;47.824;16.228;2023-05-10T08:06:42;4.37;;;2.80;;
18653;SDS011;9456;47.824;16.228;2023-05-10T08:09:11;7.30;;;3.47;;
18653;SDS011;9456;47.824;16.228;2023-05-10T08:11:40;4.67;;;2.80;;
18653;SDS011;9456;47.824;16.228;2023-05-10T08:14:09;5.77;;;2.27;;
18653;SDS011;9456;47.824;16.228;2023-05-10T08:16:38;3.87;;;2.53;;
18653;SDS011;9456;47.824;16.228;2023-05-10T08:19:07;2.60;;;2.40;;
18653;SDS011;9456;47.824;16.228;2023-05-10T08:21:36;4.07;;;2.60;;
18653;SDS011;9456;47.824;16.228;2023-05-10T08:24:05;3.17;;;2.60;;
18653;SDS011;9456;47.824;16.228;2023-05-10T08:26:35;2.63;;;2.43;;
18653;SDS011;9456;47.824;16.228;2023-05-10T08:29:04;4.13;;;2.00;;
18653;SDS011;9456;47.824;16.228;2023-05-10T08:31:32;4.27;;;2.50;;
18653;SDS011;9456;47.824;16.228;2023-05-10T08:34:02;5.10;;;2.70;;
18653;SDS011;9456;47.824;16.228;2023-05-10T08:36:30;4.13;;;2.70;;
18653;SDS011;9456;47.824;16.228;2023-05-10T08:38:59;2.30;;;2.10;;
18653;SDS011;9456;47.824;16.228;2023-05-10T08:41:28;3.70;;;1.97;;
18653;SDS011;9456;47.824;16.228;2023-05-10T08:43:57;3.73;;;2.33;;
18653;SDS011;9456;47.824;16.228;2023-05-10T08:46:26;4.10;;;2.53;;
18653;SDS011;9456;47.824;16.228;2023-05-10T08:48:55;5.17;;;2.40;;
18653;SDS011;9456;47.824;16.228;2023-05-10T08:51:24;6.60;;;2.40;;
18653;SDS011;9456;47.824;16.228;2023-05-10T08:53:53;4.47;;;2.50;;
18653;SDS011;9456;47.824;16.228;2023-05-10T08:56:22;4.13;;;2.30;;
18653;SDS011;9456;47.824;16.228;2023-05-10T08:58:51;3.97;;;2.37;;
18653;SDS011;9456;47.824;16.228;2023-05-10T09:01:21;5.53;;;2.43;;
18653;SDS011;9456;47.824;16.228;2023-05-10T09:03:50;6.03;;;2.40;;
18653;SDS011;9456;47.824;16.228;2023-05-10T09:06:19;5.23;;;2.40;;
18653;SDS011;9456;47.824;16.228;2023-05-10T09:08:47;7.20;;;2.93;;
18653;SDS011;9456;47.824;16.228;2023-05-10T09:11:17;2.93;;;2.43;;
18653;SDS011;9456;47.824;16.228;2023-05-10T09:13:46;4.67;;;2.37;;
18653;SDS011;9456;47.824;16.228;2023-05-10T09:16:15;3.33;;;2.27;;
18653;SDS011;9456;47.824;16.228;2023-05-10T09:18:44;2.40;;;2.10;;
18653;SDS011;9456;47.824;16.228;2023-05-10T09:21:13;3.60;;;2.53;;
18653;SDS011;9456;47.824;16.228;2023-05-10T09:23:43;6.27;;;2.90;;
18653;SDS011;9456;47.824;16.228;2023-05-10T09:26:12;4.00;;;2.70;;
18653;SDS011;9456;47.824;16.228;2023-05-10T09:28:51;3.93;;;2.47;;
18653;SDS011;9456;47.824;16.228;2023-05-10T09:31:19;3.57;;;2.27;;
18653;SDS011;9456;47.824;16.228;2023-05-10T09:33:49;3.83;;;2.17;;
18653;SDS011;9456;47.824;16.228;2023-05-10T09:36:17;4.00;;;2.30;;
18653;SDS011;9456;47.824;16.228;2023-05-10T09:38:47;3.30;;;2.50;;
18653;SDS011;9456;47.824;16.228;2023-05-10T09:41:16;3.90;;;2.03;;
18653;SDS011;9456;47.824;16.228;2023-05-10T09:43:46;4.73;;;2.30;;
18653;SDS011;9456;47.824;16.228;2023-05-10T09:46:15;2.60;;;2.40;;
18653;SDS011;9456;47.824;16.228;2023-05-10T09:48:44;5.13;;;2.40;;
18653;SDS011;9456;47.824;16.228;2023-05-10T09:51:19;5.93;;;2.13;;
18653;SDS011;9456;47.824;16.228;2023-05-10T09:53:49;2.53;;;2.33;;
18653;SDS011;9456;47.824;16.228;2023-05-10T10:06:27;3.60;;;3.00;;
18653;SDS011;9456;47.824;16.228;2023-05-10T10:16:25;4.15;;;3.40;;
18653;SDS011;9456;47.824;16.228;2023-05-10T10:18:55;5.50;;;3.40;;
18653;SDS011;9456;47.824;16.228;2023-05-10T10:21:24;4.50;;;2.90;;
18653;SDS011;9456;47.824;16.228;2023-05-10T10:23:53;2.90;;;2.60;;
18653;SDS011;9456;47.824;16.228;2023-05-10T10:46:59;5.83;;;3.07;;
18653;SDS011;9456;47.824;16.228;2023-05-10T10:49:30;4.20;;;2.43;;
18653;SDS011;9456;47.824;16.228;2023-05-10T10:54:53;4.40;;;2.50;;
18653;SDS011;9456;47.824;16.228;2023-05-10T10:57:21;4.07;;;2.60;;
18653;SDS011;9456;47.824;16.228;2023-05-10T10:59:50;4.70;;;2.83;;
18653;SDS011;9456;47.824;16.228;2023-05-10T11:02:37;4.47;;;2.70;;
18653;SDS011;9456;47.824;16.228;2023-05-10T11:08:20;3.50;;;2.30;;
18653;SDS011;9456;47.824;16.228;2023-05-10T11:10:52;2.93;;;2.37;;
18653;SDS011;9456;47.824;16.228;2023-05-10T11:13:33;4.27;;;2.37;;
18653;SDS011;9456;47.824;16.228;2023-05-10T11:16:09;5.00;;;2.70;;
18653;SDS011;9456;47.824;16.228;2023-05-10T11:18:38;2.83;;;2.20;;
18653;SDS011;9456;47.824;16.228;2023-05-10T11:21:08;2.40;;;2.20;;
18653;SDS011;9456;47.824;16.228;2023-05-10T11:29:01;4.10;;;2.10;;
18653;SDS011;9456;47.824;16.228;2023-05-10T11:31:31;3.20;;;2.80;;
18653;SDS011;9456;47.824;16.228;2023-05-10T11:34:00;2.50;;;2.30;;
18653;SDS011;9456;47.824;16.228;2023-05-10T11:36:29;5.00;;;2.60;;
18653;SDS011;9456;47.824;16.228;2023-05-10T11:38:58;4.83;;;2.53;;
18653;SDS011;9456;47.824;16.228;2023-05-10T11:41:27;4.23;;;2.70;;
18653;SDS011;9456;47.824;16.228;2023-05-10T11:43:56;2.40;;;2.20;;
18653;SDS011;9456;47.824;16.228;2023-05-10T11:46:25;6.60;;;2.30;;
18653;SDS011;9456;47.824;16.228;2023-05-10T11:48:57;2.43;;;2.20;;
18653;SDS011;9456;47.824;16.228;2023-05-10T11:51:24;3.93;;;2.90;;
18653;SDS011;9456;47.824;16.228;2023-05-10T11:53:53;6.17;;;2.60;;
18653;SDS011;9456;47.824;16.228;2023-05-10T11:56:22;4.80;;;2.60;;
18653;SDS011;9456;47.824;16.228;2023-05-10T11:58:53;2.70;;;2.50;;
18653;SDS011;9456;47.824;16.228;2023-05-10T12:01:21;9.10;;;2.67;;
18653;SDS011;9456;47.824;16.228;2023-05-10T12:03:51;2.87;;;2.00;;
18653;SDS011;9456;47.824;16.228;2023-05-10T12:06:20;3.43;;;2.20;;
18653;SDS011;9456;47.824;16.228;2023-05-10T12:08:48;4.70;;;2.47;;
18653;SDS011;9456;47.824;16.228;2023-05-10T12:11:20;3.00;;;2.80;;
18653;SDS011;9456;47.824;16.228;2023-05-10T12:13:49;4.03;;;2.00;;
18653;SDS011;9456;47.824;16.228;2023-05-10T12:16:18;2.20;;;2.00;;
18653;SDS011;9456;47.824;16.228;2023-05-10T12:18:48;2.30;;;2.10;;
18653;SDS011;9456;47.824;16.228;2023-05-10T12:21:18;1.97;;;1.87;;
18653;SDS011;9456;47.824;16.228;2023-05-10T12:23:48;4.80;;;1.70;;
18653;SDS011;9456;47.824;16.228;2023-05-10T12:26:16;2.33;;;2.13;;
18653;SDS011;9456;47.824;16.228;2023-05-10T12:28:45;2.70;;;2.40;;
18653;SDS011;9456;47.824;16.228;2023-05-10T12:31:14;2.50;;;2.20;;
18653;SDS011;9456;47.824;16.228;2023-05-10T12:33:43;2.60;;;2.00;;
18653;SDS011;9456;47.824;16.228;2023-05-10T12:36:12;3.63;;;2.00;;
18653;SDS011;9456;47.824;16.228;2023-05-10T12:38:41;2.23;;;1.97;;
18653;SDS011;9456;47.824;16.228;2023-05-10T12:41:10;2.03;;;1.93;;
18653;SDS011;9456;47.824;16.228;2023-05-10T12:43:39;2.10;;;1.87;;
18653;SDS011;9456;47.824;16.228;2023-05-10T12:46:08;2.10;;;1.90;;
18653;SDS011;9456;47.824;16.228;2023-05-10T12:48:37;4.50;;;1.70;;
18653;SDS011;9456;47.824;16.228;2023-05-10T12:51:06;1.83;;;1.73;;
18653;SDS011;9456;47.824;16.228;2023-05-10T12:53:35;2.33;;;1.77;;
18653;SDS011;9456;47.824;16.228;2023-05-10T12:56:05;1.60;;;1.50;;
18653;SDS011;9456;47.824;16.228;2023-05-10T12:58:35;1.73;;;1.60;;
18653;SDS011;9456;47.824;16.228;2023-05-10T13:01:04;2.20;;;1.80;;
18653;SDS011;9456;47.824;16.228;2023-05-10T13:03:33;2.20;;;2.00;;
18653;SDS011;9456;47.824;16.228;2023-05-10T13:06:02;1.60;;;1.50;;
18653;SDS011;9456;47.824;16.228;2023-05-10T13:08:31;3.53;;;2.00;;
18653;SDS011;9456;47.824;16.228;2023-05-10T13:11:00;1.90;;;1.80;;
18653;SDS011;9456;47.824;16.228;2023-05-10T13:13:30;1.87;;;1.77;;
18653;SDS011;9456;47.824;16.228;2023-05-10T13:28:18;1.97;;;1.80;;
18653;SDS011;9456;47.824;16.228;2023-05-10T13:30:46;2.60;;;1.70;;
18653;SDS011;9456;47.824;16.228;2023-05-10T13:33:15;4.10;;;1.83;;
18653;SDS011;9456;47.824;16.228;2023-05-10T13:35:44;5.83;;;1.80;;
18653;SDS011;9456;47.824;16.228;2023-05-10T13:38:13;1.40;;;1.40;;
18653;SDS011;9456;47.824;16.228;2023-05-10T13:40:42;1.93;;;1.73;;
18653;SDS011;9456;47.824;16.228;2023-05-10T13:43:11;3.83;;;1.60;;
18653;SDS011;9456;47.824;16.228;2023-05-10T13:45:40;1.90;;;1.67;;
18653;SDS011;9456;47.824;16.228;2023-05-10T13:48:09;3.13;;;1.97;;
18653;SDS011;9456;47.824;16.228;2023-05-10T13:50:38;1.80;;;1.60;;
18653;SDS011;9456;47.824;16.228;2023-05-10T13:53:07;2.03;;;1.93;;
18653;SDS011;9456;47.824;16.228;2023-05-10T13:55:36;3.23;;;1.60;;
18653;SDS011;9456;47.824;16.228;2023-05-10T13:58:05;2.50;;;1.90;;
18653;SDS011;9456;47.824;16.228;2023-05-10T14:00:34;3.00;;;2.03;;
18653;SDS011;9456;47.824;16.228;2023-05-10T14:03:03;2.30;;;1.80;;
18653;SDS011;9456;47.824;16.228;2023-05-10T14:05:32;3.07;;;1.87;;
18653;SDS011;9456;47.824;16.228;2023-05-10T14:08:01;4.60;;;1.80;;
18653;SDS011;9456;47.824;16.228;2023-05-10T14:10:30;2.10;;;1.60;;
18653;SDS011;9456;47.824;16.228;2023-05-10T14:12:59;1.80;;;1.70;;
18653;SDS011;9456;47.824;16.228;2023-05-10T14:15:28;2.97;;;1.90;;
18653;SDS011;9456;47.824;16.228;2023-05-10T14:17:57;5.03;;;1.87;;
18653;SDS011;9456;47.824;16.228;2023-05-10T14:20:26;2.53;;;1.80;;
18653;SDS011;9456;47.824;16.228;2023-05-10T14:22:55;1.83;;;1.73;;
18653;SDS011;9456;47.824;16.228;2023-05-10T14:25:24;1.90;;;1.77;;
18653;SDS011;9456;47.824;16.228;2023-05-10T14:27:53;3.07;;;2.10;;
18653;SDS011;9456;47.824;16.228;2023-05-10T14:30:22;2.47;;;2.30;;
18653;SDS011;9456;47.824;16.228;2023-05-10T14:32:51;5.20;;;2.30;;
18653;SDS011;9456;47.824;16.228;2023-05-10T14:35:21;3.93;;;1.90;;
18653;SDS011;9456;47.824;16.228;2023-05-10T14:37:50;2.07;;;1.90;;
18653;SDS011;9456;47.824;16.228;2023-05-10T14:40:19;2.30;;;2.10;;
18653;SDS011;9456;47.824;16.228;2023-05-10T14:42:49;3.90;;;2.47;;
18653;SDS011;9456;47.824;16.228;2023-05-10T14:45:17;3.23;;;2.17;;
18653;SDS011;9456;47.824;16.228;2023-05-10T14:47:47;3.07;;;2.77;;
18653;SDS011;9456;47.824;16.228;2023-05-10T14:50:16;2.47;;;2.27;;
18653;SDS011;9456;47.824;16.228;2023-05-10T14:52:45;3.77;;;2.70;;
18653;SDS011;9456;47.824;16.228;2023-05-10T14:55:14;6.00;;;2.23;;
18653;SDS011;9456;47.824;16.228;2023-05-10T14:57:43;3.47;;;2.10;;
18653;SDS011;9456;47.824;16.228;2023-05-10T15:00:13;3.93;;;2.10;;
18653;SDS011;9456;47.824;16.228;2023-05-10T15:02:43;3.30;;;2.00;;
18653;SDS011;9456;47.824;16.228;2023-05-10T15:05:12;3.93;;;2.33;;
18653;SDS011;9456;47.824;16.228;2023-05-10T15:07:42;2.30;;;2.10;;
18653;SDS011;9456;47.824;16.228;2023-05-10T15:10:11;2.23;;;2.00;;
18653;SDS011;9456;47.824;16.228;2023-05-10T15:12:40;7.40;;;2.40;;
18653;SDS011;9456;47.824;16.228;2023-05-10T15:15:09;2.30;;;2.10;;
18653;SDS011;9456;47.824;16.228;2023-05-10T15:17:39;2.40;;;2.20;;
18653;SDS011;9456;47.824;16.228;2023-05-10T15:20:09;3.77;;;2.30;;
18653;SDS011;9456;47.824;16.228;2023-05-10T15:22:38;2.30;;;2.10;;
18653;SDS011;9456;47.824;16.228;2023-05-10T15:25:08;2.40;;;2.20;;
18653;SDS011;9456;47.824;16.228;2023-05-10T15:27:37;12.30;;;2.13;;
18653;SDS011;9456;47.824;16.228;2023-05-10T15:30:08;3.70;;;1.73;;
18653;SDS011;9456;47.824;16.228;2023-05-10T15:32:37;3.90;;;2.20;;
18653;SDS011;9456;47.824;16.228;2023-05-10T15:35:07;2.70;;;2.33;;
18653;SDS011;9456;47.824;16.228;2023-05-10T15:37:36;4.73;;;2.30;;
18653;SDS011;9456;47.824;16.228;2023-05-10T15:40:07;2.47;;;2.20;;
18653;SDS011;9456;47.824;16.228;2023-05-10T15:42:36;4.10;;;2.23;;
18653;SDS011;9456;47.824;16.228;2023-05-10T15:45:06;2.30;;;2.20;;
18653;SDS011;9456;47.824;16.228;2023-05-10T15:47:36;2.47;;;2.30;;
18653;SDS011;9456;47.824;16.228;2023-05-10T15:50:07;5.13;;;2.20;;
18653;SDS011;9456;47.824;16.228;2023-05-10T15:52:36;2.90;;;2.33;;
18653;SDS011;9456;47.824;16.228;2023-05-10T15:55:06;2.50;;;2.30;;
18653;SDS011;9456;47.824;16.228;2023-05-10T15:57:37;3.37;;;2.10;;
18653;SDS011;9456;47.824;16.228;2023-05-10T16:00:08;5.30;;;2.40;;
18653;SDS011;9456;47.824;16.228;2023-05-10T16:02:37;2.90;;;2.60;;
18653;SDS011;9456;47.824;16.228;2023-05-10T16:05:07;2.50;;;2.30;;
18653;SDS011;9456;47.824;16.228;2023-05-10T16:07:37;3.73;;;3.40;;
18653;SDS011;9456;47.824;16.228;2023-05-10T16:10:07;3.03;;;2.83;;